Time;durP1;ratioP1;P1;durP2;ratioP2;P2;SDS_P1;SDS_P2;PMS_P1;PMS_P2;Temp;Humidity;BMP_temperature;BMP_pressure;BME280_temperature;BME280_humidity;BME280_pressure;Samples;Min_cycle;Max_cycle;Signal;HPM_P1;HPM_P2
2021/10/03 00:00:30;;;;;;;3.10;2.80;;;;;;;19.23;46.99;94805.91;4931787;28;20071;-67
2021/10/03 00:02:57;;;;;;;3.95;3.65;;;;;;;19.30;46.78;94818.72;4933200;29;20060;-66
2021/10/03 00:05:23;;;;;;;4.30;3.20;;;;;;;19.33;46.68;94812.59;4933427;28;20027;-67
2021/10/03 00:07:51;;;;;;;3.40;3.00;;;;;;;19.33;46.44;94822.59;4950963;28;20490;-67
2021/10/03 00:10:22;;;;;;;3.25;2.63;;;;;;;19.34;46.62;94819.53;4951985;28;20493;-68
2021/10/03 00:12:47;;;;;;;4.73;3.10;;;;;;;19.18;46.22;94816.25;4957902;28;20497;-68
2021/10/03 00:15:15;;;;;;;5.22;3.17;;;;;;;19.15;46.74;94820.47;4954718;28;20275;-66
2021/10/03 00:17:41;;;;;;;5.30;2.65;;;;;;;19.21;46.35;94819.00;4952547;28;20665;-67
2021/10/03 00:20:09;;;;;;;3.53;2.85;;;;;;;19.22;46.29;94820.53;4952839;29;20027;-67
2021/10/03 00:22:35;;;;;;;3.50;3.13;;;;;;;19.21;45.87;94820.91;4951896;28;20031;-67
2021/10/03 00:25:00;;;;;;;3.55;3.10;;;;;;;19.27;46.08;94814.06;4950608;28;20126;-67
2021/10/03 00:27:26;;;;;;;2.90;2.70;;;;;;;19.37;45.85;94816.09;4960392;28;20035;-67
2021/10/03 00:29:52;;;;;;;3.40;3.10;;;;;;;19.30;45.89;94807.94;4964959;28;20049;-67
2021/10/03 00:32:17;;;;;;;2.72;2.53;;;;;;;19.23;45.96;94810.53;4973908;28;20027;-67
2021/10/03 00:34:43;;;;;;;3.20;2.90;;;;;;;19.09;46.39;94807.66;4971286;28;20038;-67
2021/10/03 00:37:08;;;;;;;4.18;2.90;;;;;;;18.95;47.17;94808.28;4970401;28;20035;-67
2021/10/03 00:39:33;;;;;;;3.10;2.80;;;;;;;19.04;46.86;94802.59;4956999;28;20668;-67
2021/10/03 00:41:59;;;;;;;4.82;3.15;;;;;;;18.67;47.73;94803.22;4974143;28;20041;-68
2021/10/03 00:44:24;;;;;;;2.90;2.70;;;;;;;18.74;47.52;94784.50;4963239;28;20026;-67
2021/10/03 00:46:50;;;;;;;3.63;3.33;;;;;;;18.91;46.94;94796.66;4973418;28;20105;-67
2021/10/03 00:49:16;;;;;;;3.13;2.83;;;;;;;19.08;46.73;94800.72;4971177;28;20051;-66
2021/10/03 00:51:42;;;;;;;3.92;3.10;;;;;;;18.85;47.13;94798.13;4986106;28;20059;-66
2021/10/03 00:54:07;;;;;;;2.90;2.70;;;;;;;18.87;47.15;94799.28;4960474;28;20442;-66
2021/10/03 00:56:33;;;;;;;4.28;3.20;;;;;;;18.83;47.32;94787.69;4955777;28;20489;-67
2021/10/03 00:58:59;;;;;;;4.28;3.00;;;;;;;18.87;47.51;94774.28;4964715;28;20019;-67
2021/10/03 01:01:24;;;;;;;4.45;2.90;;;;;;;18.87;46.58;94775.03;4971069;28;20043;-67
2021/10/03 01:03:50;;;;;;;3.33;3.03;;;;;;;18.80;46.99;94763.41;4969410;28;20039;-67
2021/10/03 01:06:16;;;;;;;2.83;2.63;;;;;;;18.80;47.45;94787.66;4970993;28;20118;-67
2021/10/03 01:08:41;;;;;;;3.63;2.78;;;;;;;18.86;46.79;94767.34;4964396;28;20633;-67
2021/10/03 01:11:07;;;;;;;3.25;2.95;;;;;;;18.93;46.66;94778.19;4953172;28;20023;-66
2021/10/03 01:13:33;;;;;;;3.60;2.92;;;;;;;18.80;46.93;94769.56;4957491;28;20130;-67
2021/10/03 01:15:58;;;;;;;3.22;2.97;;;;;;;18.85;47.09;94766.56;4951423;28;20039;-66
2021/10/03 01:18:24;;;;;;;3.50;3.20;;;;;;;18.79;47.22;94776.09;4966363;28;20122;-67
2021/10/03 01:20:50;;;;;;;2.83;2.63;;;;;;;18.89;46.89;94780.84;4950765;28;20625;-66
2021/10/03 01:23:16;;;;;;;3.70;3.30;;;;;;;18.86;46.71;94770.81;4952639;28;20046;-67
2021/10/03 01:25:47;;;;;;;7.80;3.10;;;;;;;18.91;46.79;94778.56;4951446;28;20486;-67
2021/10/03 01:28:14;;;;;;;3.42;3.08;;;;;;;18.77;46.86;94764.13;4960182;28;20047;-67
2021/10/03 01:30:44;;;;;;;3.47;3.17;;;;;;;18.83;46.80;94778.81;4970397;28;20061;-67
2021/10/03 01:33:10;;;;;;;3.53;3.00;;;;;;;18.77;46.65;94761.44;4970324;28;20519;-67
2021/10/03 01:35:36;;;;;;;2.90;2.70;;;;;;;18.60;47.26;94763.50;4970672;28;20031;-67
2021/10/03 01:38:02;;;;;;;3.50;3.20;;;;;;;18.63;47.08;94759.28;4972352;28;20027;-67
2021/10/03 01:40:29;;;;;;;6.40;3.20;;;;;;;18.59;47.00;94753.88;4950282;28;20035;-68
2021/10/03 01:42:55;;;;;;;2.95;2.75;;;;;;;18.56;47.19;94765.34;4965389;28;20498;-68
2021/10/03 01:45:22;;;;;;;5.68;3.10;;;;;;;18.38;47.37;94756.25;4958702;28;20042;-67
2021/10/03 01:48:21;;;;;;;3.55;3.25;;;;;;;18.52;47.27;94753.75;4970215;28;20042;-67
2021/10/03 01:50:52;;;;;;;3.47;3.17;;;;;;;18.56;47.07;94746.50;4968250;28;20046;-68
2021/10/03 01:53:28;;;;;;;4.47;3.20;;;;;;;18.51;47.03;94754.91;4970134;28;20042;-67
2021/10/03 01:55:54;;;;;;;3.42;3.13;;;;;;;18.47;47.02;94740.59;4951280;28;20058;-67
2021/10/03 01:58:23;;;;;;;3.72;2.70;;;;;;;18.47;47.23;94745.22;4958568;28;20062;-67
2021/10/03 02:00:53;;;;;;;4.40;3.15;;;;;;;18.33;47.58;94749.28;4964371;28;20389;-67
2021/10/03 02:03:18;;;;;;;3.10;2.88;;;;;;;18.36;47.41;94739.69;4969680;28;20074;-68
2021/10/03 02:05:45;;;;;;;3.30;3.00;;;;;;;18.37;47.23;94743.91;4969573;28;20129;-67
2021/10/03 02:08:12;;;;;;;5.18;3.15;;;;;;;18.30;47.48;94741.91;4971791;28;20019;-67
2021/10/03 02:10:39;;;;;;;2.55;2.45;;;;;;;17.90;48.12;94727.06;4949872;28;20058;-67
2021/10/03 02:13:06;;;;;;;4.78;3.20;;;;;;;18.18;47.56;94731.34;4956906;28;20034;-67
2021/10/03 02:15:32;;;;;;;4.28;2.70;;;;;;;18.24;47.64;94737.19;4962220;28;20300;-67
2021/10/03 02:17:57;;;;;;;2.80;2.60;;;;;;;18.12;47.88;94738.19;4969796;28;20075;-67
2021/10/03 02:20:23;;;;;;;4.22;3.08;;;;;;;18.00;47.83;94728.38;4969128;28;20030;-66
2021/10/03 02:22:50;;;;;;;2.90;2.70;;;;;;;18.08;47.77;94724.66;4970238;28;20027;-64
2021/10/03 02:25:16;;;;;;;3.58;2.70;;;;;;;18.02;48.15;94730.72;4953576;28;20043;-65
2021/10/03 02:27:42;;;;;;;3.13;2.58;;;;;;;18.01;47.83;94718.38;4955147;28;20060;-64
2021/10/03 02:30:08;;;;;;;4.43;2.72;;;;;;;18.21;47.74;94729.84;4961072;28;20066;-65
2021/10/03 02:32:34;;;;;;;2.90;2.70;;;;;;;18.12;47.46;94720.13;4969139;28;20077;-64
2021/10/03 02:35:00;;;;;;;3.50;2.83;;;;;;;18.22;47.30;94723.31;4970378;28;20054;-64
2021/10/03 02:37:26;;;;;;;3.38;3.05;;;;;;;18.13;47.26;94727.06;4964355;28;20074;-65
2021/10/03 02:39:53;;;;;;;2.80;2.60;;;;;;;18.14;46.94;94717.84;4949532;28;20039;-65
2021/10/03 02:42:19;;;;;;;2.85;2.50;;;;;;;18.26;46.66;94724.91;4951674;28;20051;-65
2021/10/03 02:44:45;;;;;;;2.60;2.40;;;;;;;18.23;46.55;94725.66;4960990;28;20038;-65
2021/10/03 02:47:13;;;;;;;3.33;3.08;;;;;;;18.13;46.81;94729.75;4971207;28;20528;-64
2021/10/03 02:49:40;;;;;;;2.80;2.58;;;;;;;18.04;47.25;94717.69;4968824;28;20042;-64
2021/10/03 02:52:07;;;;;;;2.67;2.47;;;;;;;18.21;46.93;94719.06;4969231;28;20599;-65
2021/10/03 02:54:33;;;;;;;2.95;2.60;;;;;;;18.31;46.34;94718.44;4959977;28;20047;-64
2021/10/03 02:56:58;;;;;;;3.55;2.80;;;;;;;18.24;46.44;94721.06;4949864;28;20540;-65
2021/10/03 02:59:24;;;;;;;3.13;2.72;;;;;;;18.19;46.60;94705.97;4958572;28;21303;-64
2021/10/03 03:01:50;;;;;;;2.67;2.47;;;;;;;18.17;46.34;94684.03;4971079;28;20032;-66
2021/10/03 03:04:16;;;;;;;4.18;2.78;;;;;;;18.22;46.19;94699.09;4968699;28;20051;-64
2021/10/03 03:06:41;;;;;;;3.63;2.95;;;;;;;18.08;46.55;94700.44;4969022;28;20709;-65
2021/10/03 03:09:06;;;;;;;4.72;2.78;;;;;;;17.98;46.96;94695.69;4963290;28;20098;-65
2021/10/03 03:11:32;;;;;;;2.83;2.60;;;;;;;18.08;46.80;94700.44;4949551;28;20481;-65
2021/10/03 03:13:57;;;;;;;4.03;2.80;;;;;;;17.82;47.06;94690.44;4959083;28;20098;-64
2021/10/03 03:16:22;;;;;;;4.03;2.92;;;;;;;18.09;46.82;94702.00;4968061;28;20477;-65
2021/10/03 03:18:48;;;;;;;2.70;2.50;;;;;;;17.98;46.54;94687.59;4983173;28;20619;-65
2021/10/03 03:21:13;;;;;;;3.40;3.10;;;;;;;17.98;46.80;94697.59;4968666;28;20050;-65
2021/10/03 03:23:39;;;;;;;3.05;2.70;;;;;;;17.59;47.33;94682.34;4967621;28;20579;-65
2021/10/03 03:26:04;;;;;;;3.10;2.90;;;;;;;17.91;47.22;94692.84;4951397;28;20034;-65
2021/10/03 03:28:30;;;;;;;4.93;3.00;;;;;;;17.98;46.77;94693.00;4957135;28;20040;-64
2021/10/03 03:30:55;;;;;;;3.50;2.97;;;;;;;17.92;46.43;94678.28;4963938;28;20039;-65
2021/10/03 03:33:21;;;;;;;2.85;2.65;;;;;;;17.98;46.11;94682.22;4963889;28;20043;-65
2021/10/03 03:35:46;;;;;;;2.90;2.70;;;;;;;17.99;45.90;94683.78;4957113;28;20488;-65
2021/10/03 03:38:12;;;;;;;3.10;2.42;;;;;;;17.87;46.00;94675.91;4977229;28;20183;-65
2021/10/03 03:40:38;;;;;;;2.80;2.60;;;;;;;18.10;45.69;94675.84;4957280;28;20055;-65
2021/10/03 03:43:03;;;;;;;4.32;2.80;;;;;;;18.00;45.84;94669.16;4955427;28;20032;-65
2021/10/03 03:45:29;;;;;;;3.00;2.78;;;;;;;18.07;45.49;94679.28;4955629;28;20050;-65
2021/10/03 03:47:56;;;;;;;3.08;2.78;;;;;;;18.12;45.05;94684.34;4956255;28;20046;-65
2021/10/03 03:50:22;;;;;;;2.92;2.17;;;;;;;18.11;45.18;94672.00;4957988;28;20039;-64
2021/10/03 03:52:47;;;;;;;5.40;2.65;;;;;;;18.15;45.12;94678.22;4971123;28;20534;-66
2021/10/03 03:55:13;;;;;;;5.00;2.45;;;;;;;18.06;44.87;94662.34;4955523;28;20130;-65
2021/10/03 03:57:38;;;;;;;3.08;2.65;;;;;;;18.17;44.81;94671.34;4958876;28;20520;-65
2021/10/03 04:00:07;;;;;;;4.00;2.28;;;;;;;18.11;44.83;94669.31;4966402;28;20066;-65
2021/10/03 04:02:32;;;;;;;3.53;3.22;;;;;;;18.17;45.01;94668.66;4973439;28;20535;-65
2021/10/03 04:04:58;;;;;;;3.05;2.85;;;;;;;18.15;45.11;94665.53;4975313;28;20042;-65
2021/10/03 04:07:24;;;;;;;3.20;2.90;;;;;;;18.10;45.08;94657.78;4974871;28;20042;-64
2021/10/03 04:09:50;;;;;;;3.50;2.92;;;;;;;18.09;45.29;94656.25;4964271;28;20039;-65
2021/10/03 04:12:15;;;;;;;3.10;2.80;;;;;;;18.04;45.00;94655.78;4955251;28;20053;-64
2021/10/03 04:14:41;;;;;;;3.00;2.70;;;;;;;18.09;44.92;94672.38;4957533;28;20051;-65
2021/10/03 04:17:07;;;;;;;6.20;2.67;;;;;;;18.09;44.85;94660.84;4976495;28;20533;-65
2021/10/03 04:19:32;;;;;;;3.42;3.13;;;;;;;18.11;44.63;94670.09;4974057;28;20122;-66
2021/10/03 04:21:58;;;;;;;3.13;2.80;;;;;;;17.99;45.00;94634.56;4973510;28;20656;-66
2021/10/03 04:24:24;;;;;;;3.60;2.70;;;;;;;18.09;44.90;94667.00;4969639;28;20409;-65
2021/10/03 04:26:49;;;;;;;3.35;3.05;;;;;;;18.05;44.96;94652.72;4955243;28;20046;-65
2021/10/03 04:29:15;;;;;;;2.92;2.72;;;;;;;18.06;44.81;94666.94;4965913;28;20074;-65
2021/10/03 04:31:40;;;;;;;3.35;3.13;;;;;;;18.04;45.21;94658.47;4974503;28;20039;-64
2021/10/03 04:34:06;;;;;;;3.20;3.00;;;;;;;17.90;45.76;94653.66;4972850;28;20425;-65
2021/10/03 04:36:32;;;;;;;2.95;2.70;;;;;;;17.93;45.56;94658.31;4974683;28;20039;-65
2021/10/03 04:38:57;;;;;;;3.42;3.13;;;;;;;17.94;45.27;94659.84;4973625;28;20070;-65
2021/10/03 04:41:22;;;;;;;2.85;2.53;;;;;;;17.87;45.44;94649.78;4953725;28;20031;-64
2021/10/03 04:43:48;;;;;;;3.42;2.75;;;;;;;17.85;45.27;94646.66;4964532;28;20054;-65
2021/10/03 04:46:13;;;;;;;3.78;2.80;;;;;;;17.85;45.10;94662.03;4969943;28;20484;-65
2021/10/03 04:48:39;;;;;;;2.83;2.50;;;;;;;17.68;45.08;94631.00;4970875;28;20043;-65
2021/10/03 04:51:04;;;;;;;3.30;2.35;;;;;;;17.68;45.18;94652.53;4971527;28;20388;-65
2021/10/03 04:53:30;;;;;;;3.15;2.85;;;;;;;17.70;45.15;94649.47;4971019;28;20031;-67
2021/10/03 04:55:56;;;;;;;2.45;2.25;;;;;;;17.77;44.81;94652.31;4957261;28;20107;-65
2021/10/03 04:58:22;;;;;;;2.67;2.47;;;;;;;17.67;45.11;94667.13;4951968;28;20039;-65
2021/10/03 05:00:47;;;;;;;3.35;2.60;;;;;;;17.65;45.58;94664.75;4951593;28;20734;-65
2021/10/03 05:03:12;;;;;;;2.50;2.30;;;;;;;17.70;45.07;94652.94;4951328;28;20047;-65
2021/10/03 05:05:38;;;;;;;3.42;2.20;;;;;;;18.05;44.37;94660.78;4951992;28;20035;-64
2021/10/03 05:08:04;;;;;;;3.67;2.78;;;;;;;18.04;43.86;94645.78;4953709;28;20030;-65
2021/10/03 05:10:29;;;;;;;2.70;2.50;;;;;;;18.16;43.82;94648.25;4950771;28;20171;-66
2021/10/03 05:12:55;;;;;;;3.15;2.67;;;;;;;18.27;43.86;94653.00;4957479;28;20043;-65
2021/10/03 05:15:20;;;;;;;3.10;2.80;;;;;;;18.34;43.50;94656.59;4961664;28;20043;-65
2021/10/03 05:17:45;;;;;;;2.75;2.25;;;;;;;17.92;44.05;94656.78;4969555;28;20031;-64
2021/10/03 05:20:11;;;;;;;4.55;2.85;;;;;;;18.07;44.40;94653.16;4972293;28;20034;-64
2021/10/03 05:22:36;;;;;;;3.15;2.65;;;;;;;17.87;44.17;94598.66;4969557;28;20038;-64
2021/10/03 05:25:03;;;;;;;2.80;2.60;;;;;;;18.26;44.02;94662.22;4962770;28;20070;-64
2021/10/03 05:27:28;;;;;;;3.05;2.75;;;;;;;18.27;44.01;94664.56;4951940;28;20426;-64
2021/10/03 05:29:54;;;;;;;2.80;2.60;;;;;;;18.37;43.52;94669.28;4966281;28;20124;-64
2021/10/03 05:32:19;;;;;;;2.63;2.42;;;;;;;18.31;43.46;94660.00;4971414;28;20030;-63
2021/10/03 05:34:44;;;;;;;2.72;2.45;;;;;;;18.41;43.60;94655.88;4970454;28;20051;-64
2021/10/03 05:37:10;;;;;;;3.72;2.83;;;;;;;18.45;43.48;94672.88;4985489;28;20038;-64
2021/10/03 05:39:35;;;;;;;3.28;2.83;;;;;;;18.51;43.02;94652.56;4966624;28;20054;-65
2021/10/03 05:42:01;;;;;;;2.97;2.67;;;;;;;18.62;42.84;94650.00;4950813;28;20035;-65
2021/10/03 05:44:26;;;;;;;2.65;2.45;;;;;;;18.78;42.48;94653.28;4958488;28;20111;-65
2021/10/03 05:46:51;;;;;;;4.10;2.72;;;;;;;18.70;42.37;94643.59;4966952;28;20743;-64
2021/10/03 05:49:17;;;;;;;2.60;2.40;;;;;;;18.89;42.30;94634.56;4969737;28;20133;-64
2021/10/03 05:51:42;;;;;;;2.70;2.50;;;;;;;19.01;41.59;94647.78;4970236;28;20445;-65
2021/10/03 05:54:08;;;;;;;2.90;2.25;;;;;;;19.11;41.87;94649.81;4970569;28;20130;-65
2021/10/03 05:56:35;;;;;;;2.97;2.20;;;;;;;19.16;41.42;94637.91;4951799;28;20023;-65
2021/10/03 05:59:02;;;;;;;2.30;2.10;;;;;;;19.28;41.21;94648.41;4959452;28;20046;-65
2021/10/03 06:01:30;;;;;;;2.80;2.50;;;;;;;19.36;41.28;94641.97;4961842;28;20038;-65
2021/10/03 06:03:56;;;;;;;2.50;2.30;;;;;;;19.44;41.58;94640.09;4969603;28;20039;-66
2021/10/03 06:06:21;;;;;;;2.90;2.70;;;;;;;19.54;41.58;94628.59;4969904;28;20431;-65
2021/10/03 06:08:47;;;;;;;2.67;2.47;;;;;;;19.62;41.34;94642.97;4969498;28;20043;-65
2021/10/03 06:11:12;;;;;;;4.88;2.83;;;;;;;19.63;40.85;94637.19;4955284;28;20035;-65
2021/10/03 06:13:40;;;;;;;2.28;2.08;;;;;;;19.80;40.67;94640.41;4954496;28;20043;-67
2021/10/03 06:16:05;;;;;;;2.42;2.33;;;;;;;19.61;40.70;94625.25;4961761;28;20031;-65
2021/10/03 06:18:31;;;;;;;2.58;2.35;;;;;;;19.50;41.09;94614.34;4969640;28;20043;-66
2021/10/03 06:20:56;;;;;;;2.78;2.53;;;;;;;19.94;40.42;94632.41;4969037;28;20034;-65
2021/10/03 06:23:22;;;;;;;2.50;2.10;;;;;;;19.99;40.44;94621.25;4971376;28;20073;-65
2021/10/03 06:25:47;;;;;;;2.45;2.25;;;;;;;20.18;39.77;94631.78;4958501;28;20397;-65
2021/10/03 06:28:12;;;;;;;2.33;2.13;;;;;;;20.15;40.32;94624.44;4951176;28;20051;-65
2021/10/03 06:30:38;;;;;;;2.30;2.10;;;;;;;20.37;39.70;94629.94;4960665;28;20030;-65
2021/10/03 06:33:04;;;;;;;2.55;2.22;;;;;;;20.35;39.50;94621.44;4969159;28;20034;-65
2021/10/03 06:35:30;;;;;;;2.22;2.03;;;;;;;20.61;39.62;94639.34;4968276;28;20026;-65
2021/10/03 06:37:58;;;;;;;2.67;2.33;;;;;;;20.80;39.42;94638.28;4970110;28;20023;-65
2021/10/03 06:40:24;;;;;;;3.25;2.03;;;;;;;20.79;38.77;94617.81;4959997;28;20039;-65
2021/10/03 06:42:50;;;;;;;2.80;2.60;;;;;;;20.97;39.34;94629.44;4949782;28;20035;-65
2021/10/03 06:45:16;;;;;;;3.75;2.35;;;;;;;21.00;39.09;94636.78;4957783;28;20046;-65
2021/10/03 06:47:41;;;;;;;2.13;2.03;;;;;;;21.20;38.85;94631.81;4950022;28;20027;-65
2021/10/03 06:50:07;;;;;;;2.50;2.30;;;;;;;21.28;38.47;94636.81;4951541;28;20557;-66
2021/10/03 06:52:32;;;;;;;4.05;2.20;;;;;;;21.39;38.43;94634.16;4949799;28;20051;-65
2021/10/03 06:54:58;;;;;;;2.45;2.20;;;;;;;21.50;38.45;94640.38;4948016;28;20126;-65
2021/10/03 06:57:23;;;;;;;2.30;2.10;;;;;;;21.51;38.18;94625.69;4949556;28;20046;-65
2021/10/03 06:59:48;;;;;;;2.10;1.90;;;;;;;21.64;37.95;94650.41;4955273;28;20169;-66
2021/10/03 07:02:26;;;;;;;2.08;1.90;;;;;;;21.80;37.75;94644.63;4952322;28;20063;-66
2021/10/03 07:04:55;;;;;;;2.50;1.70;;;;;;;21.90;37.69;94641.13;4949816;28;20039;-67
2021/10/03 07:07:21;;;;;;;2.50;2.30;;;;;;;21.85;37.62;94643.47;4964440;28;20486;-65
2021/10/03 07:09:47;;;;;;;2.65;2.45;;;;;;;21.99;37.42;94622.56;4948384;28;20043;-65
2021/10/03 07:12:14;;;;;;;2.40;2.28;;;;;;;21.94;37.70;94639.19;4949491;28;20046;-65
2021/10/03 07:14:42;;;;;;;2.63;2.08;;;;;;;21.94;37.73;94643.84;4957270;28;20046;-65
2021/10/03 07:17:08;;;;;;;2.47;2.28;;;;;;;22.16;37.54;94658.94;4967828;28;20026;-66
2021/10/03 07:19:33;;;;;;;2.60;2.40;;;;;;;22.37;37.46;94658.13;4964023;28;20043;-65
2021/10/03 07:22:00;;;;;;;2.03;1.90;;;;;;;22.36;37.30;94653.09;4949386;28;20074;-66
2021/10/03 07:24:26;;;;;;;2.50;2.30;;;;;;;22.44;36.79;94630.22;4948999;28;20037;-65
2021/10/03 07:26:51;;;;;;;2.60;2.40;;;;;;;22.61;36.70;94645.66;4935669;28;20042;-66
2021/10/03 07:29:17;;;;;;;2.25;2.10;;;;;;;22.37;37.03;94641.88;4973445;28;20023;-66
2021/10/03 07:31:42;;;;;;;3.33;2.53;;;;;;;22.50;36.85;94634.06;4962130;28;20679;-65
2021/10/03 07:34:08;;;;;;;2.42;2.00;;;;;;;22.67;36.01;94635.94;4968446;28;20041;-65
2021/10/03 07:36:33;;;;;;;1.90;1.80;;;;;;;22.64;36.15;94630.56;4968604;28;20508;-65
2021/10/03 07:38:59;;;;;;;2.35;2.15;;;;;;;22.91;35.52;94630.84;4966471;28;20094;-69
2021/10/03 07:41:24;;;;;;;2.55;2.33;;;;;;;23.13;35.87;94624.13;4954842;28;20378;-62
2021/10/03 07:43:50;;;;;;;2.58;2.38;;;;;;;22.98;36.26;94634.31;4951144;28;20027;-69
2021/10/03 07:46:17;;;;;;;2.47;2.17;;;;;;;23.10;35.58;94608.66;4957085;28;20035;-67
2021/10/03 07:48:43;;;;;;;2.42;2.30;;;;;;;23.42;35.28;94637.53;4948860;28;20079;-71
2021/10/03 07:51:10;;;;;;;2.30;2.10;;;;;;;23.05;34.67;94581.94;4964963;28;20039;-77
2021/10/03 07:53:36;;;;;;;3.85;2.60;;;;;;;23.42;34.63;94637.53;4948947;28;20098;-66
2021/10/03 07:56:02;;;;;;;2.30;2.20;;;;;;;23.43;34.24;94642.53;4950738;28;20466;-66
2021/10/03 07:58:27;;;;;;;2.60;2.15;;;;;;;23.90;34.62;94647.66;4951556;28;20066;-66
2021/10/03 08:00:53;;;;;;;2.38;2.17;;;;;;;23.77;33.68;94650.88;4959951;28;20046;-68
2021/10/03 08:03:18;;;;;;;2.00;1.90;;;;;;;24.03;33.98;94640.56;4968106;28;20493;-67
2021/10/03 08:05:44;;;;;;;2.70;2.50;;;;;;;24.26;33.26;94659.75;4959164;28;20066;-64
2021/10/03 08:08:10;;;;;;;2.03;1.83;;;;;;;24.13;34.25;94658.72;4952114;28;20129;-65
2021/10/03 08:10:36;;;;;;;1.88;1.77;;;;;;;24.26;33.82;94651.59;4949183;28;20482;-66
2021/10/03 08:13:02;;;;;;;2.53;2.10;;;;;;;24.53;33.44;94659.88;4964472;28;20087;-65
2021/10/03 08:15:28;;;;;;;2.28;1.90;;;;;;;24.71;33.19;94658.91;4961058;28;20392;-68
2021/10/03 08:17:54;;;;;;;2.00;1.90;;;;;;;24.87;32.97;94642.78;4969465;28;20046;-69
2021/10/03 08:20:21;;;;;;;2.05;1.95;;;;;;;25.19;32.74;94668.84;4970886;28;20027;-65
2021/10/03 08:22:47;;;;;;;1.95;1.85;;;;;;;25.17;32.76;94642.03;4971683;28;20039;-64
2021/10/03 08:25:13;;;;;;;3.58;2.20;;;;;;;25.21;32.59;94650.16;4970755;28;20045;-68
2021/10/03 08:27:38;;;;;;;1.98;1.88;;;;;;;25.33;32.42;94642.19;4953431;28;20039;-66
2021/10/03 08:30:06;;;;;;;2.20;1.88;;;;;;;25.50;31.99;94648.56;4975978;28;20480;-63
2021/10/03 08:32:31;;;;;;;2.03;1.92;;;;;;;25.35;31.83;94656.19;4953081;28;20405;-63
2021/10/03 08:34:57;;;;;;;3.80;2.50;;;;;;;25.55;31.74;94645.38;4953986;29;20019;-63
2021/10/03 08:37:22;;;;;;;3.13;1.90;;;;;;;25.55;31.63;94650.06;4952236;29;20050;-62
2021/10/03 08:39:49;;;;;;;2.38;2.17;;;;;;;25.76;31.57;94640.81;4951584;29;20039;-66
2021/10/03 08:42:14;;;;;;;3.75;2.13;;;;;;;25.78;31.38;94644.66;4951343;28;20134;-65
2021/10/03 08:44:40;;;;;;;2.30;2.10;;;;;;;25.99;31.36;94653.66;4960618;28;20107;-63
2021/10/03 08:47:06;;;;;;;93.88;83.07;;;;;;;26.38;32.05;94653.75;4955303;28;20106;-68
2021/10/03 08:49:31;;;;;;;73.18;61.85;;;;;;;26.17;31.37;94643.25;4952870;28;20050;-81
2021/10/03 08:51:57;;;;;;;41.35;36.97;;;;;;;26.55;31.13;94641.00;4951909;28;20059;-72
2021/10/03 08:54:22;;;;;;;12.93;11.70;;;;;;;26.69;30.96;94646.19;4938110;28;20513;-71
2021/10/03 08:56:48;;;;;;;184.18;154.13;;;;;;;26.50;31.45;94655.13;4952657;28;20393;-62
2021/10/03 08:59:14;;;;;;;22.27;20.15;;;;;;;26.76;30.27;94645.28;4955627;28;20085;-59
2021/10/03 09:01:53;;;;;;;94.30;79.95;;;;;;;26.69;30.82;94653.59;4963819;28;20405;-60
2021/10/03 09:04:25;;;;;;;9.75;8.88;;;;;;;26.84;30.97;94649.41;4971968;28;20046;-60
2021/10/03 09:07:11;;;;;;;21.20;19.00;;;;;;;27.21;31.22;94650.22;4972675;28;20031;-59
2021/10/03 09:09:58;;;;;;;12.20;10.80;;;;;;;27.27;30.42;94634.13;4971902;28;20078;-60
2021/10/03 09:12:36;;;;;;;19.40;17.52;;;;;;;27.43;29.98;94651.28;4953749;28;20098;-61
2021/10/03 09:15:19;;;;;;;16.75;15.25;;;;;;;27.56;30.05;94645.19;4957929;28;20043;-59
2021/10/03 09:17:55;;;;;;;12.25;11.07;;;;;;;27.73;29.64;94652.97;4933436;28;20626;-59
2021/10/03 09:20:26;;;;;;;9.10;8.32;;;;;;;27.57;29.49;94639.28;4934977;29;20039;-59
2021/10/03 09:23:11;;;;;;;11.60;10.52;;;;;;;27.82;29.18;94637.97;4933793;29;20139;-60
2021/10/03 09:25:42;;;;;;;9.38;8.70;;;;;;;27.78;29.60;94642.72;4936136;28;20132;-59
2021/10/03 09:28:31;;;;;;;;;;;;;;;28.04;29.36;94636.22;4952694;28;20032;-59
2021/10/03 09:30:59;;;;;;;2.53;2.33;;;;;;;27.96;28.39;94640.34;4952167;28;19955;-58
2021/10/03 09:33:25;;;;;;;5.95;5.15;;;;;;;28.29;29.09;94632.09;4959729;28;20039;-59
2021/10/03 09:35:59;;;;;;;6.10;3.97;;;;;;;28.37;28.31;94617.06;4971640;28;20685;-62
2021/10/03 09:38:26;;;;;;;5.70;3.65;;;;;;;28.54;28.51;94615.81;4986308;28;20023;-60
2021/10/03 09:41:07;;;;;;;4.78;4.30;;;;;;;28.82;28.21;94627.94;4968135;28;20038;-60
2021/10/03 09:43:41;;;;;;;5.68;4.43;;;;;;;28.69;28.67;94627.13;4944333;28;20030;-59
2021/10/03 09:46:07;;;;;;;3.22;2.75;;;;;;;29.21;27.72;94626.81;4959923;28;20038;-63
2021/10/03 09:48:49;;;;;;;2.40;2.28;;;;;;;29.04;27.58;94624.63;4951757;28;20057;-65
2021/10/03 09:51:16;;;;;;;2.92;1.88;;;;;;;29.10;26.45;94622.88;4950470;28;20046;-64
2021/10/03 09:53:43;;;;;;;2.33;2.15;;;;;;;28.76;27.60;94602.28;4950237;28;20035;-64
2021/10/03 09:56:09;;;;;;;2.22;2.03;;;;;;;29.33;26.08;94624.53;4953116;29;20487;-67
2021/10/03 09:58:37;;;;;;;2.30;2.17;;;;;;;29.33;25.37;94589.69;4951673;28;20126;-72
2021/10/03 10:01:03;;;;;;;2.83;2.33;;;;;;;29.40;24.94;94611.38;4964882;28;20031;-70
2021/10/03 10:03:30;;;;;;;2.08;1.98;;;;;;;29.68;25.18;94600.75;4970813;28;20031;-71
2021/10/03 10:05:56;;;;;;;2.40;2.10;;;;;;;29.87;24.31;94616.19;4971282;28;20117;-70
2021/10/03 10:08:22;;;;;;;2.28;2.05;;;;;;;29.81;24.56;94589.78;4972976;28;20054;-71
2021/10/03 10:10:49;;;;;;;3.83;2.03;;;;;;;29.79;24.88;94606.69;4982911;28;20078;-70
2021/10/03 10:13:17;;;;;;;2.28;2.08;;;;;;;30.11;24.96;94622.06;4951247;28;20241;-69
2021/10/03 10:15:43;;;;;;;1.95;1.85;;;;;;;29.99;24.99;94609.94;4962711;28;20038;-75
2021/10/03 10:18:22;;;;;;;2.60;1.90;;;;;;;29.20;25.52;94610.84;4972321;28;20126;-71
2021/10/03 10:20:49;;;;;;;2.88;2.38;;;;;;;29.35;25.65;94557.16;4970789;28;20050;-70
2021/10/03 10:23:18;;;;;;;1.90;1.80;;;;;;;29.88;24.65;94595.78;4987715;28;20465;-75
2021/10/03 10:25:58;;;;;;;2.58;2.38;;;;;;;29.57;24.47;94551.00;4969425;28;20064;-75
2021/10/03 10:28:35;;;;;;;2.08;1.98;;;;;;;29.71;25.04;94605.38;4952125;28;20044;-72
2021/10/03 10:31:18;;;;;;;2.03;1.90;;;;;;;29.86;25.14;94598.22;4958083;28;20035;-71
2021/10/03 10:33:57;;;;;;;1.90;1.80;;;;;;;30.16;25.39;94602.34;4959353;28;20042;-68
2021/10/03 10:36:26;;;;;;;3.85;1.67;;;;;;;30.14;24.86;94598.50;4950834;28;20130;-69
2021/10/03 10:39:07;;;;;;;2.03;1.90;;;;;;;30.62;24.72;94597.22;4950161;28;20138;-69
2021/10/03 10:41:39;;;;;;;2.00;1.63;;;;;;;30.73;23.89;94602.34;4950187;28;20023;-76
2021/10/03 10:44:31;;;;;;;2.30;2.10;;;;;;;30.74;23.71;94592.88;4951866;28;20101;-68
2021/10/03 10:47:08;;;;;;;1.95;1.85;;;;;;;30.58;23.38;94580.09;4959546;28;20382;-68
2021/10/03 10:49:41;;;;;;;4.43;2.35;;;;;;;30.90;25.89;94598.16;4950813;28;20051;-68
2021/10/03 10:52:26;;;;;;;7.32;2.63;;;;;;;31.39;26.81;94599.53;4951203;28;20043;-69
2021/10/03 10:55:06;;;;;;;5.88;2.50;;;;;;;31.46;26.41;94600.00;4950864;28;20042;-70
2021/10/03 10:57:51;;;;;;;2.50;1.90;;;;;;;31.53;25.64;94588.72;4950938;28;20103;-66
2021/10/03 11:00:24;;;;;;;2.30;2.20;;;;;;;31.18;22.92;94587.34;4960094;28;20043;-72
2021/10/03 11:02:52;;;;;;;2.58;1.83;;;;;;;31.48;22.63;94594.81;4956371;28;20540;-69
2021/10/03 11:05:36;;;;;;;2.40;1.77;;;;;;;31.41;22.87;94600.59;4952783;28;20084;-68
2021/10/03 11:08:13;;;;;;;2.20;2.10;;;;;;;31.57;22.77;94594.06;4951186;28;20043;-71
2021/10/03 11:10:57;;;;;;;2.22;1.75;;;;;;;31.73;22.89;94582.81;4949003;28;20039;-78
2021/10/03 11:13:45;;;;;;;1.65;1.55;;;;;;;31.05;22.83;94582.69;4948969;28;20532;-76
2021/10/03 11:16:48;;;;;;;1.75;1.65;;;;;;;31.49;22.50;94581.84;4962022;28;20126;-76
2021/10/03 11:19:15;;;;;;;2.60;1.80;;;;;;;31.43;22.58;94583.63;4950468;28;20056;-71
2021/10/03 11:21:49;;;;;;;1.90;1.80;;;;;;;31.45;23.07;94576.47;4950620;28;20040;-66
2021/10/03 11:24:23;;;;;;;2.45;2.30;;;;;;;31.57;23.14;94578.34;4950075;28;20087;-73
2021/10/03 11:26:55;;;;;;;1.90;1.80;;;;;;;31.47;22.82;94584.25;4964829;28;20512;-75
2021/10/03 11:29:32;;;;;;;2.38;2.17;;;;;;;31.47;23.03;94578.75;4951681;29;20643;-77
2021/10/03 11:32:09;;;;;;;2.25;1.90;;;;;;;30.33;23.85;94566.50;4957878;28;20111;-71
2021/10/03 11:34:38;;;;;;;2.00;1.90;;;;;;;31.22;23.52;94582.47;4969180;28;20130;-72